Time;durP1;ratioP1;P1;durP2;ratioP2;P2;SDS_P1;SDS_P2;PMS_P1;PMS_P2;Temp;Humidity;BMP_temperature;BMP_pressure;BME280_temperature;BME280_humidity;BME280_pressure;Samples;Min_cycle;Max_cycle;Signal;HPM_P1;HPM_P2
2023/05/09 16:45:19;;;;;;;9.35;4.15;;;31.10;87.70;;;;;;5081584;28;20439;-51
2023/05/09 16:47:45;;;;;;;11.15;5.28;;;31.00;87.00;;;;;;5081141;28;20087;-52
2023/05/09 16:50:12;;;;;;;10.27;4.97;;;31.20;88.60;;;;;;5081371;28;20032;-51
2023/05/09 16:52:39;;;;;;;14.20;5.45;;;31.20;87.90;;;;;;5081120;28;20309;-53
2023/05/09 16:55:06;;;;;;;12.27;5.28;;;31.30;87.70;;;;;;5081678;28;20251;-47
2023/05/09 16:57:32;;;;;;;9.77;5.20;;;31.30;87.50;;;;;;5080891;28;20048;-44
2023/05/09 16:59:59;;;;;;;10.93;5.07;;;31.30;86.80;;;;;;5081464;28;20041;-47
2023/05/09 17:02:26;;;;;;;12.27;5.53;;;31.50;85.50;;;;;;5075685;28;20031;-45
2023/05/09 17:04:52;;;;;;;9.88;5.05;;;31.60;83.80;;;;;;5072116;28;20037;-53
2023/05/09 17:07:19;;;;;;;14.98;5.30;;;31.70;84.50;;;;;;5065035;28;20029;-53
2023/05/09 17:09:47;;;;;;;8.75;4.90;;;31.70;84.60;;;;;;5059872;28;20100;-48
2023/05/09 17:12:16;;;;;;;9.43;5.20;;;31.80;84.70;;;;;;5059397;28;20364;-51
2023/05/09 17:14:44;;;;;;;10.23;5.13;;;31.70;84.40;;;;;;5060142;28;20032;-43
2023/05/09 17:17:12;;;;;;;9.73;5.47;;;31.60;84.50;;;;;;5060616;28;20317;-51
2023/05/09 17:19:38;;;;;;;12.65;5.50;;;31.60;84.80;;;;;;5060845;28;20037;-46
2023/05/09 17:22:06;;;;;;;10.30;5.28;;;31.60;84.80;;;;;;5060509;28;20092;-49
2023/05/09 17:24:33;;;;;;;9.10;5.55;;;31.60;84.80;;;;;;5060414;28;20033;-48
2023/05/09 17:27:00;;;;;;;9.98;5.55;;;31.60;84.80;;;;;;5059884;28;20023;-49
2023/05/09 17:29:29;;;;;;;9.95;5.47;;;31.60;84.60;;;;;;5059862;28;20221;-47
2023/05/09 17:31:57;;;;;;;14.25;8.02;;;31.60;84.70;;;;;;5058564;28;20040;-51
2023/05/09 17:34:24;;;;;;;13.23;7.78;;;31.60;84.70;;;;;;5058936;28;20438;-45
2023/05/09 17:36:51;;;;;;;16.08;9.05;;;31.60;84.40;;;;;;5058624;28;20325;-49
2023/05/09 17:39:17;;;;;;;14.60;8.55;;;31.60;84.40;;;;;;5058827;28;20209;-51
2023/05/09 17:41:44;;;;;;;15.38;8.27;;;31.60;84.00;;;;;;5058353;28;20028;-45
2023/05/09 17:44:12;;;;;;;12.68;8.02;;;31.60;83.90;;;;;;5058656;28;20052;-50
2023/05/09 17:46:39;;;;;;;14.95;9.60;;;31.60;83.90;;;;;;5060149;28;20044;-47
2023/05/09 17:49:08;;;;;;;11.35;8.57;;;31.60;83.60;;;;;;5060238;28;20037;-47
2023/05/09 17:51:35;;;;;;;14.45;9.00;;;31.70;83.70;;;;;;5060014;28;20301;-43
2023/05/09 17:54:02;;;;;;;15.20;9.18;;;31.70;83.40;;;;;;5060358;28;20041;-47
2023/05/09 17:56:30;;;;;;;13.32;8.63;;;31.80;83.10;;;;;;5046996;28;20041;-45
2023/05/09 17:58:58;;;;;;;14.50;9.30;;;31.70;83.40;;;;;;5047059;28;20022;-50
2023/05/09 18:01:25;;;;;;;15.32;10.05;;;31.70;82.60;;;;;;5046638;28;20037;-44
2023/05/09 18:03:52;;;;;;;16.05;10.30;;;31.80;82.30;;;;;;5046538;28;20033;-44
2023/05/09 18:06:18;;;;;;;14.93;10.00;;;31.70;82.20;;;;;;5046502;28;20025;-46
2023/05/09 18:08:46;;;;;;;15.05;9.30;;;31.70;82.40;;;;;;5046625;28;20370;-46
2023/05/09 18:11:12;;;;;;;14.65;9.38;;;31.70;82.30;;;;;;5046254;28;20033;-49
2023/05/09 18:13:39;;;;;;;13.00;9.38;;;31.80;82.50;;;;;;5046568;28;20083;-51
2023/05/09 18:16:05;;;;;;;16.15;9.40;;;31.80;81.80;;;;;;5046196;28;20025;-51
2023/05/09 18:18:34;;;;;;;13.85;8.88;;;31.80;81.50;;;;;;5046344;28;20021;-47
2023/05/09 18:21:01;;;;;;;13.45;8.90;;;31.80;81.20;;;;;;5046498;28;20037;-51
2023/05/09 18:23:27;;;;;;;15.50;8.77;;;31.70;81.40;;;;;;5045968;28;20032;-52
2023/05/09 18:25:54;;;;;;;15.63;9.07;;;31.70;81.40;;;;;;5046289;28;20029;-52
2023/05/09 18:28:26;;;;;;;17.83;6.95;;;31.70;81.40;;;;;;5046138;28;20298;-45
2023/05/09 18:30:58;;;;;;;19.65;6.35;;;31.70;81.40;;;;;;5046070;28;20056;-50
2023/05/09 18:33:26;;;;;;;15.05;5.32;;;31.70;81.80;;;;;;5046086;28;20033;-50
2023/05/09 18:35:54;;;;;;;12.15;3.92;;;31.70;82.50;;;;;;5045937;28;20233;-44
2023/05/09 18:38:21;;;;;;;9.13;4.40;;;31.60;83.00;;;;;;5045872;28;20026;-47
2023/05/09 18:40:50;;;;;;;9.20;4.13;;;31.60;83.60;;;;;;5045900;28;20221;-49
2023/05/09 18:43:17;;;;;;;14.60;4.80;;;31.50;84.30;;;;;;5045533;28;20090;-46
2023/05/09 18:45:46;;;;;;;14.00;4.28;;;31.40;85.10;;;;;;5045640;28;20240;-45
2023/05/09 18:48:15;;;;;;;9.25;4.05;;;31.30;85.80;;;;;;5045706;28;20221;-47
2023/05/09 18:50:42;;;;;;;9.18;3.55;;;31.30;86.10;;;;;;5045667;28;20009;-46
2023/05/09 18:53:08;;;;;;;8.60;3.60;;;31.00;86.70;;;;;;5045603;28;20114;-48
2023/05/09 18:55:35;;;;;;;6.18;3.25;;;30.90;87.50;;;;;;5045560;28;20037;-50
2023/05/09 18:58:02;;;;;;;8.55;2.78;;;30.80;88.00;;;;;;5045540;28;20055;-46
2023/05/09 19:00:29;;;;;;;12.02;2.53;;;30.60;88.50;;;;;;5045351;28;20033;-53
2023/05/09 19:02:55;;;;;;;7.32;2.28;;;30.50;89.50;;;;;;5045287;28;20032;-47
2023/05/09 19:05:22;;;;;;;10.25;3.00;;;30.40;90.00;;;;;;5045472;28;20021;-45
2023/05/09 19:07:48;;;;;;;10.27;3.20;;;30.30;90.50;;;;;;5044164;28;20054;-52
2023/05/09 19:10:16;;;;;;;11.32;3.92;;;30.30;91.20;;;;;;5045298;28;20021;-44
2023/05/09 19:12:44;;;;;;;16.92;4.03;;;30.10;91.80;;;;;;5045175;28;20029;-44
2023/05/09 19:15:11;;;;;;;15.95;3.90;;;30.00;92.30;;;;;;5045097;28;20025;-44
2023/05/09 19:17:38;;;;;;;11.52;3.28;;;29.90;92.70;;;;;;5045195;28;20021;-46
2023/05/09 19:20:05;;;;;;;13.43;3.17;;;29.80;93.00;;;;;;5045662;28;20045;-53
2023/05/09 19:22:31;;;;;;;11.85;2.88;;;29.70;93.10;;;;;;5045032;28;20025;-43
2023/05/09 19:24:58;;;;;;;8.70;2.80;;;29.60;93.50;;;;;;5045411;28;20052;-45
2023/05/09 19:27:25;;;;;;;8.68;2.85;;;29.60;93.80;;;;;;5044980;28;20017;-48
2023/05/09 19:29:52;;;;;;;205.65;188.70;;;29.60;94.00;;;;;;5045384;28;20290;-44
2023/05/09 19:32:18;;;;;;;61.47;55.20;;;29.50;94.30;;;;;;5044722;28;20429;-44
2023/05/09 19:34:45;;;;;;;37.13;33.35;;;29.40;94.10;;;;;;5045241;28;20085;-49
2023/05/09 19:37:12;;;;;;;25.60;23.00;;;29.50;94.20;;;;;;5044836;28;20029;-43
2023/05/09 19:39:38;;;;;;;22.33;16.70;;;29.40;94.20;;;;;;5045016;28;20033;-45
2023/05/09 19:42:06;;;;;;;14.07;12.68;;;29.40;94.40;;;;;;5044766;28;20044;-48
2023/05/09 19:44:33;;;;;;;12.73;9.18;;;29.30;94.40;;;;;;5044466;28;20057;-53
2023/05/09 19:47:03;;;;;;;8.77;7.03;;;29.30;94.50;;;;;;5044413;28;20020;-51
2023/05/09 19:49:31;;;;;;;7.47;5.18;;;29.30;94.40;;;;;;5044853;28;20072;-44
2023/05/09 19:51:58;;;;;;;9.57;4.25;;;29.20;94.40;;;;;;5044581;28;20017;-46
2023/05/09 19:54:27;;;;;;;12.02;3.70;;;29.20;94.50;;;;;;5044768;28;20032;-51
2023/05/09 19:56:54;;;;;;;6.53;3.10;;;29.20;94.60;;;;;;5044457;28;20088;-50
2023/05/09 19:59:22;;;;;;;5.40;3.28;;;29.10;94.40;;;;;;5044791;28;20092;-44
2023/05/09 20:01:48;;;;;;;5.40;2.70;;;29.10;94.40;;;;;;5044298;28;20356;-47
2023/05/09 20:04:15;;;;;;;9.15;2.78;;;29.20;94.50;;;;;;5044429;28;20037;-44
2023/05/09 20:06:42;;;;;;;3.83;2.17;;;29.10;94.40;;;;;;5044304;28;20055;-50
2023/05/09 20:09:09;;;;;;;4.20;2.20;;;29.10;94.20;;;;;;5044402;28;20033;-49
2023/05/09 20:11:37;;;;;;;5.05;2.10;;;29.10;94.50;;;;;;5044208;28;20013;-47
2023/05/09 20:14:03;;;;;;;5.07;2.10;;;29.10;94.60;;;;;;5044420;28;20041;-51
2023/05/09 20:16:30;;;;;;;6.13;2.20;;;29.10;94.60;;;;;;5043942;28;20020;-46
2023/05/09 20:18:57;;;;;;;5.20;2.20;;;29.10;94.70;;;;;;5044086;28;20029;-48
2023/05/09 20:21:25;;;;;;;4.72;1.95;;;29.10;94.70;;;;;;5044027;28;20037;-48
2023/05/09 20:23:52;;;;;;;4.72;2.05;;;29.00;94.80;;;;;;5043963;28;20087;-46
2023/05/09 20:26:20;;;;;;;6.55;2.05;;;29.00;94.80;;;;;;5044135;28;20029;-50
2023/05/09 20:28:47;;;;;;;7.50;2.20;;;29.00;95.10;;;;;;5044119;28;20091;-50
2023/05/09 20:31:13;;;;;;;6.10;2.20;;;29.00;95.00;;;;;;5043785;28;20076;-51
2023/05/09 20:33:40;;;;;;;7.15;1.83;;;29.00;95.00;;;;;;5043919;28;20037;-48
2023/05/09 20:36:10;;;;;;;4.80;1.80;;;29.10;95.00;;;;;;5043811;28;20041;-48
2023/05/09 20:38:36;;;;;;;10.55;2.13;;;29.00;95.00;;;;;;5043923;28;20033;-46
2023/05/09 20:41:03;;;;;;;4.78;1.65;;;29.00;95.00;;;;;;5043856;28;20205;-51
2023/05/09 20:43:30;;;;;;;3.03;1.73;;;29.10;95.00;;;;;;5043763;28;20053;-45
2023/05/09 20:45:56;;;;;;;5.05;1.85;;;29.10;94.90;;;;;;5043646;28;20198;-44
2023/05/09 20:48:23;;;;;;;4.90;2.40;;;29.10;94.90;;;;;;5043878;28;20080;-49
2023/05/09 20:50:50;;;;;;;5.32;3.22;;;29.00;94.90;;;;;;5043746;28;20025;-51
2023/05/09 20:53:16;;;;;;;4.82;3.22;;;29.10;95.00;;;;;;5043461;28;20060;-47
2023/05/09 20:55:43;;;;;;;6.93;3.00;;;29.10;95.00;;;;;;5043975;28;20328;-48
2023/05/09 20:58:13;;;;;;;4.40;2.35;;;29.10;95.00;;;;;;5043720;28;20302;-51
2023/05/09 21:00:40;;;;;;;5.82;2.67;;;29.10;95.10;;;;;;5043441;28;20021;-51
2023/05/09 21:03:08;;;;;;;3.63;2.42;;;29.10;95.30;;;;;;5043665;28;20030;-47
2023/05/09 21:05:35;;;;;;;5.70;2.53;;;29.10;95.30;;;;;;5043569;28;20310;-48
2023/05/09 21:08:02;;;;;;;4.25;2.40;;;29.10;95.40;;;;;;5043512;28;20038;-46
2023/05/09 21:10:28;;;;;;;6.60;2.13;;;29.20;95.30;;;;;;5043869;28;20049;-51
2023/05/09 21:12:56;;;;;;;7.80;2.42;;;29.10;95.30;;;;;;5043518;28;20040;-51
2023/05/09 21:15:23;;;;;;;7.45;2.15;;;29.10;95.30;;;;;;5043408;28;20033;-50
2023/05/09 21:17:49;;;;;;;5.70;2.30;;;29.10;95.30;;;;;;5043448;28;20017;-51
2023/05/09 21:20:16;;;;;;;7.88;2.60;;;29.10;95.20;;;;;;5043483;28;20375;-45
2023/05/09 21:22:43;;;;;;;7.07;2.25;;;29.10;95.20;;;;;;5043103;28;20075;-49
2023/05/09 21:25:10;;;;;;;7.43;2.60;;;29.10;95.20;;;;;;5043171;28;20029;-43
2023/05/09 21:27:37;;;;;;;3.92;1.85;;;28.80;95.50;;;;;;5046327;28;20026;-52
2023/05/09 21:30:04;;;;;;;3.22;2.10;;;28.40;96.40;;;;;;5052842;28;20067;-49
2023/05/09 21:32:31;;;;;;;4.82;2.20;;;28.10;97.00;;;;;;5047126;28;20040;-53
2023/05/09 21:34:58;;;;;;;3.92;2.25;;;27.90;97.80;;;;;;5047580;28;20051;-46
2023/05/09 21:37:24;;;;;;;4.15;2.10;;;27.80;97.90;;;;;;5046915;28;20039;-43
2023/05/09 21:39:51;;;;;;;4.10;2.00;;;27.60;97.80;;;;;;5047470;28;20080;-49
2023/05/09 21:42:18;;;;;;;3.65;1.80;;;27.60;98.20;;;;;;5053073;28;20327;-43
2023/05/09 21:44:44;;;;;;;3.40;1.80;;;27.40;98.20;;;;;;5065989;28;20049;-44
2023/05/09 21:47:11;;;;;;;4.05;2.00;;;27.40;98.60;;;;;;5056310;28;20029;-48
2023/05/09 21:49:38;;;;;;;4.05;2.00;;;27.30;98.80;;;;;;5058487;28;20231;-42
2023/05/09 21:52:05;;;;;;;3.03;2.05;;;27.30;99.10;;;;;;5053777;28;20025;-46
2023/05/09 21:54:31;;;;;;;5.50;2.80;;;27.30;99.00;;;;;;5058200;28;20035;-50
2023/05/09 21:56:58;;;;;;;3.75;2.08;;;27.20;99.20;;;;;;5046910;28;20033;-43
2023/05/09 21:59:25;;;;;;;4.88;2.17;;;27.20;99.20;;;;;;5047011;28;20108;-40
2023/05/09 22:01:52;;;;;;;5.60;2.78;;;27.10;98.80;;;;;;5047058;28;20026;-48
2023/05/09 22:04:18;;;;;;;5.95;2.60;;;27.10;99.00;;;;;;5050973;28;20044;-47
2023/05/09 22:06:45;;;;;;;4.38;3.30;;;26.90;99.10;;;;;;5057537;28;20013;-53
2023/05/09 22:09:12;;;;;;;5.50;2.05;;;26.90;99.20;;;;;;5066992;28;20036;-51
2023/05/09 22:11:38;;;;;;;5.57;1.40;;;27.00;98.50;;;;;;5066499;28;20024;-42
2023/05/09 22:14:06;;;;;;;3.22;1.48;;;26.80;98.10;;;;;;5066667;28;20029;-43
2023/05/09 22:16:32;;;;;;;6.30;1.50;;;26.70;98.00;;;;;;5066344;28;20155;-42
2023/05/09 22:18:59;;;;;;;4.95;1.65;;;26.80;98.30;;;;;;5066690;28;20052;-46
2023/05/09 22:21:26;;;;;;;2.70;1.45;;;26.80;98.60;;;;;;5059881;28;20037;-52
2023/05/09 22:23:52;;;;;;;4.95;1.77;;;26.80;98.60;;;;;;5046382;28;20036;-49
2023/05/09 22:26:20;;;;;;;2.97;1.70;;;27.10;98.90;;;;;;5045512;28;20020;-51
2023/05/09 22:28:46;;;;;;;3.08;1.70;;;27.20;98.50;;;;;;5044922;28;20037;-51
2023/05/09 22:31:15;;;;;;;6.13;2.00;;;27.40;98.20;;;;;;5044256;28;20032;-50
2023/05/09 22:33:41;;;;;;;3.75;1.70;;;27.60;97.70;;;;;;5044560;28;20037;-45
2023/05/09 22:36:08;;;;;;;3.78;1.85;;;27.60;97.30;;;;;;5044140;28;20017;-56
2023/05/09 22:38:35;;;;;;;3.83;1.65;;;27.70;96.90;;;;;;5044081;28;20021;-50
2023/05/09 22:41:01;;;;;;;5.80;1.83;;;27.80;96.90;;;;;;5044071;28;20346;-47
2023/05/09 22:43:29;;;;;;;4.05;1.83;;;27.80;96.80;;;;;;5044186;28;20049;-52
2023/05/09 22:45:56;;;;;;;4.43;1.73;;;27.90;96.80;;;;;;5044034;28;20096;-51
2023/05/09 22:48:22;;;;;;;4.53;1.67;;;27.90;96.50;;;;;;5045796;28;20026;-51
2023/05/09 22:50:49;;;;;;;3.85;1.60;;;28.00;96.60;;;;;;5045722;28;20033;-50
2023/05/09 22:53:16;;;;;;;6.40;1.75;;;28.00;96.50;;;;;;5044135;28;20033;-48
2023/05/09 22:55:43;;;;;;;6.28;1.67;;;28.10;96.40;;;;;;5045206;28;20337;-50
2023/05/09 22:58:10;;;;;;;4.80;1.90;;;28.10;96.30;;;;;;5045571;28;20048;-46
2023/05/09 23:00:36;;;;;;;6.80;1.67;;;28.10;96.20;;;;;;5045347;28;20017;-51
2023/05/09 23:03:03;;;;;;;5.43;2.45;;;28.10;96.20;;;;;;5045414;28;20021;-50
2023/05/09 23:05:30;;;;;;;6.45;5.18;;;28.10;96.10;;;;;;5045298;28;20224;-54
2023/05/09 23:07:57;;;;;;;5.15;3.28;;;28.00;96.00;;;;;;5045230;28;20081;-56
2023/05/09 23:10:24;;;;;;;4.60;2.83;;;28.00;95.90;;;;;;5045204;28;20068;-51
2023/05/09 23:12:50;;;;;;;4.60;2.47;;;28.10;95.90;;;;;;5045441;28;20021;-51
2023/05/09 23:15:17;;;;;;;4.10;2.25;;;28.00;95.70;;;;;;5045142;28;20088;-55
2023/05/09 23:17:43;;;;;;;4.82;2.50;;;28.10;95.60;;;;;;5045077;28;20037;-55
2023/05/09 23:20:10;;;;;;;4.53;1.73;;;28.10;95.50;;;;;;5045050;28;20205;-49
2023/05/09 23:22:37;;;;;;;3.08;1.60;;;28.00;95.30;;;;;;5044848;28;20060;-50
2023/05/09 23:25:05;;;;;;;3.47;1.73;;;28.00;95.10;;;;;;5044861;28;20097;-50
2023/05/09 23:27:31;;;;;;;4.43;1.45;;;28.00;95.10;;;;;;5044961;28;20032;-50
2023/05/09 23:29:58;;;;;;;5.93;1.45;;;28.00;95.00;;;;;;5045224;28;20320;-50
2023/05/09 23:32:25;;;;;;;2.38;1.70;;;28.10;94.90;;;;;;5044735;28;20017;-51
2023/05/09 23:34:52;;;;;;;9.55;2.60;;;28.00;94.90;;;;;;5045092;28;20083;-53
2023/05/09 23:37:18;;;;;;;4.72;2.30;;;28.00;94.80;;;;;;5044727;28;20293;-51
2023/05/09 23:39:45;;;;;;;6.32;2.17;;;28.00;94.70;;;;;;5045100;28;20093;-58
2023/05/09 23:42:12;;;;;;;5.20;2.10;;;28.00;94.60;;;;;;5044526;28;20034;-50
2023/05/09 23:44:39;;;;;;;4.05;1.60;;;28.00;94.60;;;;;;5044199;28;20244;-49
2023/05/09 23:47:05;;;;;;;3.67;1.50;;;28.00;94.50;;;;;;5044409;28;20039;-52
2023/05/09 23:49:32;;;;;;;2.95;1.85;;;27.90;94.30;;;;;;5044768;28;20040;-49
2023/05/09 23:51:59;;;;;;;5.32;2.63;;;27.90;94.20;;;;;;5044207;28;20021;-51
2023/05/09 23:54:26;;;;;;;4.43;1.83;;;27.90;94.00;;;;;;5044237;28;20309;-49
2023/05/09 23:56:52;;;;;;;5.57;1.80;;;27.90;94.00;;;;;;5044362;28;20026;-51
2023/05/09 23:59:19;;;;;;;5.75;1.33;;;27.90;93.90;;;;;;5044739;28;20348;-48
